Time;durP1;ratioP1;P1;durP2;ratioP2;P2;SDS_P1;SDS_P2;PMS_P1;PMS_P2;Temp;Humidity;BMP_temperature;BMP_pressure;BME280_temperature;BME280_humidity;BME280_pressure;Samples;Min_cycle;Max_cycle;Signal;HPM_P1;HPM_P2
2023/05/13 00:00:27;;;;;;;6.80;4.75;;;;;;;13.07;69.33;102342.59;5080644;28;20032;-73
2023/05/13 00:02:52;;;;;;;7.10;4.93;;;;;;;13.22;69.47;102372.44;5079440;28;20047;-73
2023/05/13 00:05:18;;;;;;;8.73;4.93;;;;;;;13.23;69.33;102368.69;5078994;28;20052;-72
2023/05/13 00:07:43;;;;;;;7.90;5.07;;;;;;;13.29;69.11;102367.19;5080139;28;20032;-73
2023/05/13 00:10:09;;;;;;;11.13;5.20;;;;;;;13.33;69.37;102366.63;5083425;28;20048;-72
2023/05/13 00:12:36;;;;;;;6.90;4.50;;;;;;;13.13;69.61;102336.50;5065373;28;20105;-73
2023/05/13 00:15:01;;;;;;;8.15;4.60;;;;;;;13.28;69.24;102346.59;5077474;28;20361;-73
2023/05/13 00:17:26;;;;;;;6.72;4.68;;;;;;;13.45;69.28;102355.44;5079636;28;20031;-73
2023/05/13 00:19:52;;;;;;;8.75;4.82;;;;;;;13.19;72.79;102393.56;5080792;28;20030;-74
2023/05/13 00:22:17;;;;;;;7.25;5.05;;;;;;;13.51;75.16;102387.13;5079529;28;20048;-73
2023/05/13 00:24:43;;;;;;;8.30;5.00;;;;;;;13.68;74.07;102371.66;5076966;28;20054;-73
2023/05/13 00:27:09;;;;;;;7.72;4.80;;;;;;;13.91;73.54;102390.53;5053007;28;20119;-72
2023/05/13 00:29:34;;;;;;;6.15;4.50;;;;;;;13.82;73.46;102395.19;5057744;28;20104;-73
2023/05/13 00:32:00;;;;;;;10.82;4.70;;;;;;;14.06;74.33;102399.56;5057167;28;20028;-72
2023/05/13 00:34:25;;;;;;;11.20;5.10;;;;;;;14.21;74.04;102399.59;5040974;28;20044;-72
2023/05/13 00:36:51;;;;;;;6.57;5.18;;;;;;;14.34;74.16;102405.22;5041308;28;20036;-72
2023/05/13 00:39:16;;;;;;;10.05;5.10;;;;;;;14.26;74.37;102411.53;5057793;28;20404;-73
2023/05/13 00:41:42;;;;;;;7.75;5.00;;;;;;;14.23;74.55;102405.66;5058130;28;20063;-73
2023/05/13 00:44:07;;;;;;;10.05;4.95;;;;;;;14.21;74.34;102389.59;5057727;28;20523;-72
2023/05/13 00:46:33;;;;;;;11.30;5.22;;;;;;;14.26;75.39;102405.28;5058583;28;20395;-72
2023/05/13 00:48:59;;;;;;;9.07;5.35;;;;;;;14.25;75.32;102412.56;5040528;28;20391;-75
2023/05/13 00:51:25;;;;;;;8.68;5.32;;;;;;;14.33;75.66;102411.63;5058355;28;20081;-73
2023/05/13 00:53:51;;;;;;;9.68;5.43;;;;;;;14.31;75.79;102411.00;5057723;28;20029;-72
2023/05/13 00:56:20;;;;;;;7.05;5.15;;;;;;;14.26;76.38;102416.94;5054658;28;20025;-73
2023/05/13 00:58:46;;;;;;;7.75;5.28;;;;;;;14.25;76.78;102423.41;5056053;28;20043;-72
2023/05/13 01:01:48;;;;;;;12.07;5.50;;;;;;;14.22;76.79;102421.06;5054429;28;20025;-72
2023/05/13 01:04:40;;;;;;;9.23;5.25;;;;;;;14.09;76.73;102418.13;5059500;28;20032;-73
2023/05/13 01:07:40;;;;;;;7.70;5.28;;;;;;;14.00;77.11;102413.81;5041087;28;20040;-73
2023/05/13 01:10:06;;;;;;;8.27;5.95;;;;;;;13.94;76.84;102412.69;5056456;28;20048;-72
2023/05/13 01:12:34;;;;;;;10.13;5.80;;;;;;;13.95;76.96;102418.94;5056070;28;20025;-73
2023/05/13 01:15:14;;;;;;;8.23;5.47;;;;;;;13.86;77.07;102419.00;5056437;28;20033;-73
2023/05/13 01:17:49;;;;;;;8.65;5.50;;;;;;;13.75;77.51;102413.19;5056271;28;20031;-73
2023/05/13 01:20:17;;;;;;;;;;;;;;;13.71;78.50;102419.94;5059004;28;20055;-72
2023/05/13 01:22:42;;;;;;;8.10;5.55;;;;;;;13.61;77.17;102418.34;5058470;28;20075;-73
2023/05/13 01:25:08;;;;;;;8.10;5.70;;;;;;;13.52;77.66;102416.72;5057558;28;20037;-72
2023/05/13 01:27:33;;;;;;;11.60;6.38;;;;;;;13.40;77.90;102402.75;5057702;28;20032;-72
2023/05/13 01:29:59;;;;;;;8.13;5.88;;;;;;;13.48;78.29;102425.38;5040137;28;20052;-71
2023/05/13 01:32:25;;;;;;;11.32;5.93;;;;;;;13.35;78.56;102417.84;5056325;28;20017;-72
2023/05/13 01:34:52;;;;;;;9.68;6.40;;;;;;;13.32;78.58;102426.31;5056760;28;20028;-73
2023/05/13 01:37:19;;;;;;;6.78;5.90;;;;;;;12.99;78.93;102382.38;5040448;28;20025;-72
2023/05/13 01:39:46;;;;;;;7.72;6.10;;;;;;;13.18;78.82;102419.78;5056103;28;20009;-73
2023/05/13 01:42:11;;;;;;;10.95;6.25;;;;;;;12.97;78.99;102398.75;5056957;28;20033;-73
2023/05/13 01:44:37;;;;;;;8.75;6.85;;;;;;;13.06;79.27;102424.72;5040215;28;20051;-73
2023/05/13 01:47:04;;;;;;;9.80;6.40;;;;;;;12.98;79.54;102411.25;5053020;28;20132;-74
2023/05/13 01:49:30;;;;;;;12.80;6.43;;;;;;;12.91;80.14;102419.22;5034234;28;20395;-72
2023/05/13 01:51:56;;;;;;;7.93;6.20;;;;;;;12.94;80.15;102428.81;5039559;28;20025;-74
2023/05/13 01:54:22;;;;;;;13.80;6.82;;;;;;;12.83;80.18;102408.44;5039562;28;20021;-73
2023/05/13 01:56:47;;;;;;;9.55;6.78;;;;;;;12.88;80.23;102419.56;5056873;28;20044;-73
2023/05/13 01:59:12;;;;;;;8.98;6.45;;;;;;;12.81;80.48;102431.22;5040534;28;20028;-71
2023/05/13 02:01:39;;;;;;;7.43;6.50;;;;;;;12.76;80.95;102420.13;5056610;28;20029;-71
2023/05/13 02:04:05;;;;;;;8.95;6.85;;;;;;;12.68;81.25;102412.84;5056724;28;20029;-72
2023/05/13 02:06:31;;;;;;;7.57;6.50;;;;;;;12.74;81.06;102417.56;5040902;28;20090;-73
2023/05/13 02:08:56;;;;;;;10.65;7.30;;;;;;;12.76;80.90;102420.13;5061397;28;20051;-73
2023/05/13 02:11:21;;;;;;;16.08;7.20;;;;;;;12.75;80.58;102413.00;5063161;28;20021;-73
2023/05/13 02:13:47;;;;;;;8.30;7.18;;;;;;;12.79;80.66;102406.25;5073118;28;20048;-72
2023/05/13 02:16:16;;;;;;;11.90;7.93;;;;;;;12.72;81.01;102397.19;5048708;28;20036;-72
2023/05/13 02:18:42;;;;;;;8.38;7.53;;;;;;;12.81;81.00;102404.22;5060121;28;20056;-72
2023/05/13 02:21:08;;;;;;;13.93;8.15;;;;;;;12.83;81.12;102403.03;5059532;28;20044;-72
2023/05/13 02:23:35;;;;;;;8.52;7.07;;;;;;;12.86;81.56;102391.88;5059190;28;20025;-72
2023/05/13 02:26:01;;;;;;;8.50;7.63;;;;;;;12.90;82.11;102401.28;5059312;28;20035;-72
2023/05/13 02:28:27;;;;;;;10.95;8.13;;;;;;;12.94;81.83;102385.56;5058585;28;20025;-72
2023/05/13 02:30:52;;;;;;;10.63;7.97;;;;;;;13.00;82.08;102403.78;5058945;28;20029;-72
2023/05/13 02:33:17;;;;;;;16.10;8.60;;;;;;;13.03;82.37;102406.16;5059070;28;20037;-72
2023/05/13 02:35:43;;;;;;;10.02;7.93;;;;;;;13.00;82.55;102409.19;5040611;28;20132;-72
2023/05/13 02:38:09;;;;;;;11.85;7.97;;;;;;;12.94;82.93;102399.94;5057253;28;20132;-72
2023/05/13 02:40:35;;;;;;;9.15;7.43;;;;;;;12.82;82.71;102387.00;5058638;28;20400;-74
2023/05/13 02:43:00;;;;;;;10.25;7.95;;;;;;;12.69;83.26;102380.28;5022234;28;20033;-72
2023/05/13 02:45:26;;;;;;;12.27;8.05;;;;;;;12.75;83.05;102386.88;5060948;28;20068;-71
2023/05/13 02:47:51;;;;;;;17.08;8.75;;;;;;;12.69;83.40;102401.91;5064002;28;20115;-72
2023/05/13 02:50:17;;;;;;;11.02;8.27;;;;;;;12.69;83.66;102388.41;5041183;28;20040;-73
2023/05/13 02:52:43;;;;;;;11.57;9.25;;;;;;;12.61;83.66;102369.50;5057433;28;20194;-73
2023/05/13 02:55:09;;;;;;;11.90;8.50;;;;;;;12.73;83.94;102388.03;5060610;28;20047;-72
2023/05/13 02:57:35;;;;;;;13.32;9.07;;;;;;;12.66;83.90;102377.09;5064459;28;20028;-71
2023/05/13 03:00:03;;;;;;;8.95;8.07;;;;;;;12.73;84.02;102385.34;5062144;28;20093;-72
2023/05/13 03:02:28;;;;;;;10.20;8.15;;;;;;;12.77;84.00;102386.66;5062796;28;20183;-72
2023/05/13 03:04:55;;;;;;;13.60;8.35;;;;;;;12.71;84.14;102380.09;5057504;28;20068;-73
2023/05/13 03:07:21;;;;;;;14.75;8.38;;;;;;;12.80;83.85;102386.31;5057883;28;20048;-71
2023/05/13 03:09:47;;;;;;;8.85;7.60;;;;;;;12.81;83.91;102386.13;5056843;28;20033;-72
2023/05/13 03:12:12;;;;;;;9.13;7.25;;;;;;;12.86;83.11;102374.81;5056369;28;20032;-72
2023/05/13 03:14:39;;;;;;;11.30;7.80;;;;;;;13.10;82.11;102385.50;5056028;28;20025;-71
2023/05/13 03:17:07;;;;;;;8.48;6.85;;;;;;;13.40;81.08;102391.94;5022543;28;20029;-72
2023/05/13 03:19:36;;;;;;;9.32;6.60;;;;;;;13.70;79.93;102397.47;5055631;28;20029;-72
2023/05/13 03:22:02;;;;;;;9.75;7.32;;;;;;;13.67;78.77;102356.44;5056121;28;20594;-73
2023/05/13 03:24:27;;;;;;;9.55;7.47;;;;;;;13.98;77.52;102386.09;5057493;28;20360;-72
2023/05/13 03:26:53;;;;;;;8.52;6.50;;;;;;;13.96;77.57;102386.28;5055578;28;20120;-72
2023/05/13 03:29:18;;;;;;;11.68;6.30;;;;;;;14.03;76.83;102381.81;5040605;28;20033;-72
2023/05/13 03:31:44;;;;;;;10.95;6.57;;;;;;;14.34;75.35;102388.97;5038351;28;20025;-72
2023/05/13 03:34:09;;;;;;;10.65;6.07;;;;;;;14.66;73.53;102393.19;5054416;28;20492;-73
2023/05/13 03:36:35;;;;;;;11.52;5.93;;;;;;;14.87;72.61;102389.75;5058534;28;20550;-73
2023/05/13 03:39:00;;;;;;;7.57;5.90;;;;;;;15.00;71.19;102370.09;5039572;28;20111;-72
2023/05/13 03:41:27;;;;;;;8.93;5.18;;;;;;;15.27;69.50;102363.09;5062289;28;20024;-72
2023/05/13 03:43:53;;;;;;;12.50;5.45;;;;;;;15.52;67.95;102355.41;5060433;28;20025;-73
2023/05/13 03:46:18;;;;;;;7.07;5.47;;;;;;;15.84;67.15;102369.53;5062437;28;20365;-73
2023/05/13 03:48:44;;;;;;;10.48;5.50;;;;;;;16.11;65.55;102374.13;5026778;28;20108;-72
2023/05/13 03:51:10;;;;;;;9.77;4.93;;;;;;;16.32;64.67;102378.63;5059683;28;20546;-72
2023/05/13 03:53:35;;;;;;;7.03;5.25;;;;;;;16.58;63.46;102377.97;5040955;28;20025;-72
2023/05/13 03:56:01;;;;;;;10.20;5.75;;;;;;;16.87;62.20;102371.44;5040594;28;20033;-72
2023/05/13 03:58:26;;;;;;;6.38;4.82;;;;;;;17.27;61.21;102371.59;5056323;28;20059;-73
2023/05/13 04:00:52;;;;;;;9.68;5.10;;;;;;;17.81;59.54;102389.72;5056266;28;20028;-72
2023/05/13 04:03:18;;;;;;;7.93;4.57;;;;;;;18.25;57.85;102382.78;5039802;28;20036;-72
2023/05/13 04:05:47;;;;;;;7.15;4.82;;;;;;;18.42;56.86;102358.66;5056840;28;20496;-72
2023/05/13 04:08:12;;;;;;;6.30;4.53;;;;;;;18.61;55.89;102358.78;5056121;28;20179;-73
2023/05/13 04:10:38;;;;;;;6.30;5.00;;;;;;;18.97;54.74;102377.34;5056627;28;20506;-72
2023/05/13 04:13:03;;;;;;;8.05;4.90;;;;;;;19.17;53.75;102364.47;5023144;28;20033;-72
2023/05/13 04:15:30;;;;;;;7.55;4.72;;;;;;;19.45;52.47;102363.25;5056411;28;20446;-72
2023/05/13 04:17:57;;;;;;;11.57;5.10;;;;;;;19.64;51.92;102383.31;5056339;28;20055;-72
2023/05/13 04:20:23;;;;;;;7.88;5.30;;;;;;;19.77;51.28;102380.47;5056241;28;20137;-72
2023/05/13 04:22:50;;;;;;;6.45;4.95;;;;;;;19.86;50.74;102381.03;5055698;28;20083;-73
2023/05/13 04:25:15;;;;;;;7.43;4.60;;;;;;;20.09;50.28;102383.97;5056393;28;20044;-72
2023/05/13 04:27:41;;;;;;;6.65;4.13;;;;;;;20.50;49.51;102398.94;5055219;28;20033;-72
2023/05/13 04:30:08;;;;;;;6.32;4.22;;;;;;;20.69;49.03;102398.97;5055943;28;20032;-73
2023/05/13 04:32:33;;;;;;;8.63;4.60;;;;;;;20.90;48.54;102401.25;5041187;28;20027;-72
2023/05/13 04:34:59;;;;;;;5.13;4.35;;;;;;;21.10;47.88;102401.81;5055551;28;20132;-72
2023/05/13 04:37:25;;;;;;;4.72;4.20;;;;;;;21.13;47.58;102392.31;5054697;28;20027;-72
2023/05/13 04:39:50;;;;;;;5.78;4.40;;;;;;;21.24;47.45;102407.13;5055205;28;20033;-73
2023/05/13 04:42:16;;;;;;;9.95;4.05;;;;;;;21.36;47.27;102388.88;5053449;28;20025;-71
2023/05/13 04:44:42;;;;;;;6.88;3.75;;;;;;;21.60;47.02;102408.13;5055522;28;20036;-72
2023/05/13 04:47:07;;;;;;;7.80;3.90;;;;;;;21.77;46.35;102406.38;5056306;28;20102;-71
2023/05/13 04:49:33;;;;;;;7.38;3.60;;;;;;;21.88;46.13;102402.81;5054979;28;20484;-73
2023/05/13 04:52:01;;;;;;;5.07;3.65;;;;;;;22.11;45.87;102404.72;5037055;28;20385;-73
2023/05/13 04:54:26;;;;;;;8.07;3.40;;;;;;;22.36;45.24;102400.97;5053701;28;20025;-71
2023/05/13 04:56:52;;;;;;;8.55;3.60;;;;;;;22.35;44.94;102396.53;5056321;28;20028;-71
2023/05/13 04:59:17;;;;;;;5.45;3.30;;;;;;;22.52;44.49;102392.84;5056526;28;20089;-72
2023/05/13 05:01:43;;;;;;;7.97;3.78;;;;;;;22.36;44.52;102406.47;5055728;28;20032;-73
2023/05/13 05:04:08;;;;;;;6.85;3.60;;;;;;;22.39;44.91;102415.03;5056708;28;20061;-72
2023/05/13 05:06:33;;;;;;;7.43;3.30;;;;;;;22.44;44.44;102411.56;5056747;28;20456;-72
2023/05/13 05:08:59;;;;;;;6.47;3.00;;;;;;;22.45;44.54;102408.59;5039669;28;20041;-72
2023/05/13 05:11:25;;;;;;;5.15;3.20;;;;;;;22.65;44.00;102402.72;5039518;28;20037;-72
2023/05/13 05:13:50;;;;;;;7.90;3.05;;;;;;;22.91;43.56;102415.09;5057040;28;20025;-72
2023/05/13 05:16:16;;;;;;;6.88;3.00;;;;;;;22.90;43.49;102412.56;5038594;28;20079;-71
2023/05/13 05:18:42;;;;;;;8.52;2.90;;;;;;;22.88;43.57;102396.34;5056039;28;20425;-72
2023/05/13 05:21:08;;;;;;;6.47;2.80;;;;;;;22.85;43.79;102409.72;5055783;28;20032;-72
2023/05/13 05:23:34;;;;;;;5.57;2.80;;;;;;;22.85;43.92;102410.56;5055904;28;20547;-73
2023/05/13 05:26:00;;;;;;;11.82;3.00;;;;;;;22.68;43.92;102415.97;5022275;28;20108;-72
2023/05/13 05:28:25;;;;;;;4.28;2.60;;;;;;;22.60;44.31;102412.75;5056073;28;20058;-72
2023/05/13 05:30:51;;;;;;;7.88;2.67;;;;;;;22.16;45.10;102415.88;5055716;28;20028;-73
2023/05/13 05:33:17;;;;;;;4.72;2.75;;;;;;;21.02;47.43;102423.19;5053394;28;20039;-72
2023/05/13 05:35:42;;;;;;;4.82;2.78;;;;;;;20.42;49.81;102421.09;5055570;28;20511;-73
2023/05/13 05:38:11;;;;;;;6.30;3.00;;;;;;;20.26;50.84;102418.94;5039364;28;20029;-72
2023/05/13 05:40:40;;;;;;;6.00;2.70;;;;;;;20.28;51.31;102422.28;5038056;28;20025;-73
2023/05/13 05:43:06;;;;;;;10.82;2.90;;;;;;;20.35;51.35;102423.88;5054787;28;20021;-72
2023/05/13 05:45:34;;;;;;;3.88;2.60;;;;;;;20.48;50.89;102428.41;5053240;28;20487;-73
2023/05/13 05:48:00;;;;;;;4.20;2.70;;;;;;;20.54;50.94;102418.50;5054670;28;20029;-73
2023/05/13 05:50:27;;;;;;;7.28;2.85;;;;;;;20.64;50.92;102416.06;5053570;28;20327;-72
2023/05/13 05:52:52;;;;;;;5.55;2.88;;;;;;;20.69;50.77;102416.19;5053812;28;20087;-72
2023/05/13 05:55:18;;;;;;;4.63;2.75;;;;;;;20.54;50.75;102413.03;5055307;28;20095;-73
2023/05/13 05:57:43;;;;;;;5.00;2.72;;;;;;;20.54;51.05;102416.59;5055778;28;20040;-73
2023/05/13 06:00:10;;;;;;;4.53;2.53;;;;;;;20.62;50.50;102413.53;5057505;28;20538;-73
2023/05/13 06:02:35;;;;;;;8.38;2.80;;;;;;;20.61;50.15;102408.31;5037891;28;20231;-72
2023/05/13 06:05:00;;;;;;;5.80;2.67;;;;;;;20.85;49.67;102425.72;5055295;28;20236;-73
2023/05/13 06:07:26;;;;;;;8.13;2.75;;;;;;;21.00;49.07;102430.81;5056215;28;20033;-72
2023/05/13 06:09:51;;;;;;;3.75;2.47;;;;;;;20.98;49.01;102425.53;5054358;28;20033;-71
2023/05/13 06:12:17;;;;;;;3.90;2.67;;;;;;;21.05;48.66;102423.56;5053090;28;20075;-73
2023/05/13 06:14:42;;;;;;;5.25;2.58;;;;;;;21.21;48.18;102433.06;5053842;28;20033;-71
2023/05/13 06:17:08;;;;;;;6.47;2.72;;;;;;;21.23;47.94;102424.63;5054629;28;20327;-72
2023/05/13 06:19:33;;;;;;;4.40;2.55;;;;;;;21.25;47.18;102438.91;5055464;28;20033;-74
2023/05/13 06:21:58;;;;;;;4.55;2.50;;;;;;;21.31;46.96;102438.81;5042628;28;20463;-74
2023/05/13 06:24:24;;;;;;;4.30;2.33;;;;;;;21.43;46.32;102433.44;5043002;28;20037;-77
2023/05/13 06:26:49;;;;;;;7.55;2.53;;;;;;;21.44;45.68;102431.53;5027354;28;20048;-75
2023/05/13 06:29:15;;;;;;;4.28;2.60;;;;;;;21.35;45.23;102433.72;5059947;28;20033;-74
2023/05/13 06:31:41;;;;;;;5.38;2.50;;;;;;;21.37;44.74;102437.09;5043822;28;20033;-77
2023/05/13 06:34:06;;;;;;;4.75;2.40;;;;;;;21.50;44.29;102445.13;5026620;28;20037;-75
2023/05/13 06:36:32;;;;;;;4.38;2.30;;;;;;;21.72;43.72;102433.63;5058762;28;20033;-74
2023/05/13 06:38:59;;;;;;;7.28;2.70;;;;;;;21.53;43.44;102425.47;5058308;28;20021;-75
2023/05/13 06:41:25;;;;;;;3.47;2.30;;;;;;;21.81;43.27;102432.22;5058191;28;20033;-73
2023/05/13 06:43:50;;;;;;;5.22;2.50;;;;;;;21.80;42.45;102436.03;5038658;28;20041;-71
2023/05/13 06:46:16;;;;;;;3.50;2.40;;;;;;;21.72;42.71;102439.09;5057591;28;20041;-72
2023/05/13 06:48:41;;;;;;;5.88;2.42;;;;;;;21.62;42.38;102438.84;5056169;28;20033;-74
2023/05/13 06:51:06;;;;;;;5.18;2.38;;;;;;;21.90;42.16;102432.72;5062371;28;20097;-73
2023/05/13 06:53:32;;;;;;;5.45;2.50;;;;;;;21.86;42.03;102426.88;5057223;28;20484;-72
2023/05/13 06:55:57;;;;;;;4.60;2.40;;;;;;;21.83;41.57;102432.84;5059265;28;20093;-74
2023/05/13 06:58:23;;;;;;;7.60;2.97;;;;;;;22.04;40.94;102429.53;5059803;28;20032;-75
2023/05/13 07:00:48;;;;;;;5.43;2.53;;;;;;;22.09;40.90;102423.34;5044897;28;20033;-77
2023/05/13 07:03:14;;;;;;;8.52;2.83;;;;;;;21.96;40.60;102427.13;5062315;28;20036;-73
2023/05/13 07:05:39;;;;;;;5.05;2.50;;;;;;;22.03;40.24;102429.78;5060958;28;20036;-74
2023/05/13 07:08:08;;;;;;;7.95;2.75;;;;;;;21.92;39.82;102428.69;5061438;28;20039;-72
2023/05/13 07:10:34;;;;;;;5.60;2.58;;;;;;;21.92;39.60;102434.16;5057691;28;20044;-73
2023/05/13 07:13:03;;;;;;;3.63;2.35;;;;;;;21.90;39.33;102430.81;5058850;28;20037;-74
2023/05/13 07:15:29;;;;;;;5.78;2.58;;;;;;;21.90;38.83;102440.94;5053397;28;20025;-73
2023/05/13 07:17:54;;;;;;;3.90;2.80;;;;;;;21.74;38.55;102432.31;5057600;28;20025;-75
2023/05/13 07:20:21;;;;;;;7.43;2.80;;;;;;;21.66;38.19;102437.31;5060744;28;20035;-73
2023/05/13 07:22:50;;;;;;;8.07;2.55;;;;;;;21.77;38.02;102442.81;5063182;28;20072;-72
2023/05/13 07:25:16;;;;;;;4.72;2.50;;;;;;;21.84;37.60;102437.22;5059987;28;20037;-75
2023/05/13 07:27:42;;;;;;;5.88;2.20;;;;;;;21.74;37.27;102432.31;5060044;28;20043;-73
2023/05/13 07:30:09;;;;;;;3.90;2.28;;;;;;;22.00;36.96;102447.53;5037505;28;20123;-73
2023/05/13 07:32:35;;;;;;;5.15;2.25;;;;;;;21.98;36.75;102446.91;5036515;28;20136;-72
2023/05/13 07:35:02;;;;;;;4.13;2.40;;;;;;;22.05;36.15;102450.41;5037563;28;20051;-73
2023/05/13 07:37:28;;;;;;;5.00;2.40;;;;;;;21.98;36.06;102429.63;5039500;28;20692;-72
2023/05/13 07:39:53;;;;;;;7.57;2.38;;;;;;;21.99;35.91;102450.50;5058868;28;20063;-72
2023/05/13 07:42:19;;;;;;;5.18;3.08;;;;;;;22.16;35.37;102445.19;5055639;28;20531;-71
2023/05/13 07:44:45;;;;;;;3.05;2.05;;;;;;;22.40;34.83;102444.13;5057052;28;20377;-72
2023/05/13 07:47:11;;;;;;;5.00;2.40;;;;;;;22.47;34.66;102447.56;5054619;28;20480;-72
2023/05/13 07:49:36;;;;;;;6.05;2.20;;;;;;;22.40;34.49;102440.56;5054388;28;20119;-72
2023/05/13 07:52:02;;;;;;;4.28;2.30;;;;;;;22.44;34.49;102449.97;5052673;28;20049;-72
2023/05/13 07:54:27;;;;;;;5.53;2.22;;;;;;;22.48;34.37;102432.81;5053645;28;20056;-72
2023/05/13 07:56:53;;;;;;;7.72;2.40;;;;;;;22.63;34.27;102417.75;5055211;28;20112;-72
2023/05/13 07:59:18;;;;;;;5.88;2.83;;;;;;;22.73;33.94;102416.06;5052233;28;20040;-72
2023/05/13 08:01:44;;;;;;;5.72;2.40;;;;;;;22.81;33.86;102431.31;5054102;28;20052;-72
2023/05/13 08:04:09;;;;;;;5.97;2.05;;;;;;;22.86;33.46;102430.59;5055952;28;20056;-72
2023/05/13 08:06:35;;;;;;;5.38;2.40;;;;;;;22.97;33.50;102430.59;5054080;28;20040;-73
2023/05/13 08:09:00;;;;;;;4.00;2.30;;;;;;;23.01;32.97;102436.44;5036634;28;20036;-72
2023/05/13 08:11:27;;;;;;;5.00;2.28;;;;;;;23.12;32.91;102435.56;5057022;28;20080;-72
2023/05/13 08:13:53;;;;;;;3.92;2.20;;;;;;;22.91;32.59;102431.56;5060713;28;20029;-72
2023/05/13 08:16:18;;;;;;;4.53;2.15;;;;;;;23.10;32.35;102436.91;5059611;28;20055;-73
2023/05/13 08:18:44;;;;;;;5.35;2.33;;;;;;;23.08;32.29;102430.78;5039204;28;20064;-72
2023/05/13 08:21:09;;;;;;;6.70;2.10;;;;;;;23.04;32.06;102424.13;5055485;28;20148;-72
2023/05/13 08:23:36;;;;;;;2.42;2.15;;;;;;;23.14;31.70;102429.81;5038771;28;20032;-72
2023/05/13 08:26:03;;;;;;;5.28;2.40;;;;;;;23.14;31.77;102429.81;5055511;28;20043;-73
2023/05/13 08:28:28;;;;;;;7.20;2.20;;;;;;;23.25;31.70;102426.22;5056535;28;20033;-72
2023/05/13 08:30:57;;;;;;;4.93;2.20;;;;;;;23.23;31.71;102433.03;5057075;28;20039;-73
2023/05/13 08:33:22;;;;;;;3.58;1.75;;;;;;;23.27;32.05;102429.53;5039774;28;20025;-75
2023/05/13 08:35:48;;;;;;;3.60;2.03;;;;;;;23.38;31.82;102431.44;5055196;28;20031;-73
2023/05/13 08:38:13;;;;;;;3.22;2.30;;;;;;;23.48;31.55;102433.53;5038946;28;20031;-72
2023/05/13 08:40:41;;;;;;;4.30;2.10;;;;;;;23.50;31.48;102412.13;5056407;28;20083;-73
2023/05/13 08:43:08;;;;;;;3.65;2.05;;;;;;;23.37;30.91;102437.97;5038428;28;20025;-72
2023/05/13 08:45:35;;;;;;;5.93;2.25;;;;;;;23.42;31.17;102435.34;5057718;28;20017;-75
2023/05/13 08:48:02;;;;;;;4.40;2.03;;;;;;;23.63;30.69;102443.97;5058504;28;20028;-75
2023/05/13 08:50:28;;;;;;;3.65;2.20;;;;;;;23.65;30.95;102448.13;5059123;28;20028;-73
2023/05/13 08:52:56;;;;;;;4.70;2.10;;;;;;;23.47;30.07;102442.00;5056541;28;20096;-74
2023/05/13 08:55:22;;;;;;;4.57;2.15;;;;;;;23.45;29.68;102434.84;5056456;28;20088;-74
2023/05/13 08:57:48;;;;;;;5.82;1.85;;;;;;;23.31;29.55;102402.41;5057915;28;20479;-76
2023/05/13 09:00:13;;;;;;;5.03;2.10;;;;;;;23.70;29.49;102444.66;5057815;28;20028;-74
2023/05/13 09:02:42;;;;;;;6.05;2.10;;;;;;;23.67;29.64;102434.13;5043688;28;20056;-74
2023/05/13 09:05:09;;;;;;;2.53;1.83;;;;;;;23.67;29.50;102443.22;5062101;28;20118;-73
2023/05/13 09:07:37;;;;;;;6.32;2.20;;;;;;;23.63;29.54;102438.47;5056207;28;20527;-74
2023/05/13 09:10:03;;;;;;;8.82;1.92;;;;;;;23.56;29.47;102430.38;5056803;28;20123;-74
2023/05/13 09:12:47;;;;;;;3.75;1.95;;;;;;;23.81;28.93;102434.72;5057270;28;20025;-73
2023/05/13 09:15:16;;;;;;;5.60;2.00;;;;;;;23.76;29.28;102438.19;5055198;28;20055;-73
2023/05/13 09:17:48;;;;;;;5.15;1.88;;;;;;;23.85;28.91;102431.19;5056228;28;20063;-73
2023/05/13 09:20:16;;;;;;;4.07;1.75;;;;;;;23.85;28.90;102433.94;5056045;28;20059;-73
2023/05/13 09:22:52;;;;;;;5.55;1.90;;;;;;;23.92;28.66;102423.63;5055708;28;20087;-72
2023/05/13 09:25:19;;;;;;;3.58;1.85;;;;;;;24.02;28.44;102436.69;5050859;28;20025;-74
2023/05/13 09:27:50;;;;;;;3.00;1.85;;;;;;;23.97;28.05;102425.59;5057347;28;20033;-74
2023/05/13 09:30:16;;;;;;;3.47;1.98;;;;;;;23.89;28.56;102428.78;5053615;28;20028;-74
2023/05/13 09:32:42;;;;;;;5.72;2.00;;;;;;;23.83;27.96;102427.03;5039394;28;20132;-74
2023/05/13 09:35:15;;;;;;;4.57;1.73;;;;;;;23.87;28.07;102423.53;5058437;28;20070;-76
2023/05/13 09:37:43;;;;;;;7.65;1.90;;;;;;;23.94;28.52;102423.38;5061395;28;20078;-76
2023/05/13 09:40:11;;;;;;;4.50;1.90;;;;;;;23.96;28.75;102418.44;5058638;28;20478;-75
2023/05/13 09:42:41;;;;;;;6.68;2.00;;;;;;;23.97;28.32;102422.03;5051697;28;20032;-74
2023/05/13 09:45:07;;;;;;;4.82;2.00;;;;;;;23.90;28.52;102411.19;5057000;28;20024;-76
2023/05/13 09:47:35;;;;;;;6.35;2.05;;;;;;;24.12;28.25;102417.63;5045105;28;20025;-76
2023/05/13 09:50:02;;;;;;;5.43;2.20;;;;;;;24.14;28.44;102415.47;5069820;28;20032;-75
2023/05/13 09:52:30;;;;;;;5.30;1.83;;;;;;;24.19;28.55;102411.09;5065520;28;20029;-74
2023/05/13 09:54:59;;;;;;;3.00;2.10;;;;;;;24.16;28.50;102412.44;5061507;28;20060;-74
2023/05/13 09:57:28;;;;;;;2.75;2.10;;;;;;;24.06;27.95;102406.78;5060311;28;20075;-74
2023/05/13 10:00:01;;;;;;;2.22;1.50;;;;;;;24.18;26.83;102407.53;5061412;28;20025;-74
2023/05/13 10:02:27;;;;;;;3.03;1.80;;;;;;;24.25;27.28;102408.19;5044110;28;20024;-74
2023/05/13 10:04:57;;;;;;;3.20;1.88;;;;;;;24.34;27.22;102405.84;5042868;28;20060;-72
2023/05/13 10:07:24;;;;;;;7.80;1.85;;;;;;;24.28;27.18;102398.59;5060294;28;20052;-73
2023/05/13 10:09:59;;;;;;;4.60;1.60;;;;;;;24.45;26.94;102407.69;5058888;28;20372;-73
2023/05/13 10:12:25;;;;;;;5.85;1.88;;;;;;;24.43;26.80;102400.75;5057037;28;20024;-73
2023/05/13 10:14:52;;;;;;;4.72;1.90;;;;;;;24.15;26.84;102369.53;5058945;28;20399;-74
2023/05/13 10:17:20;;;;;;;5.05;1.88;;;;;;;24.49;26.89;102392.31;5059781;28;20021;-74
2023/05/13 10:19:47;;;;;;;4.00;1.73;;;;;;;24.66;27.00;102388.69;5058859;28;20089;-72
2023/05/13 10:22:14;;;;;;;5.57;2.33;;;;;;;24.68;27.24;102387.34;5059710;28;20061;-73
2023/05/13 10:24:41;;;;;;;5.90;1.90;;;;;;;24.70;27.27;102378.81;5057269;28;20491;-73
2023/05/13 10:27:07;;;;;;;6.20;1.98;;;;;;;24.79;26.67;102391.88;5056299;28;20032;-71
2023/05/13 10:29:36;;;;;;;7.32;2.05;;;;;;;24.79;26.87;102400.16;5042136;28;20021;-72
2023/05/13 10:32:02;;;;;;;3.55;1.90;;;;;;;24.83;27.00;102394.97;5062612;28;20149;-72
2023/05/13 10:34:32;;;;;;;4.03;2.00;;;;;;;24.90;26.98;102398.38;5056373;28;20029;-71
2023/05/13 10:37:26;;;;;;;4.75;1.90;;;;;;;24.88;27.13;102394.22;5055689;28;20112;-71
2023/05/13 10:40:19;;;;;;;4.90;2.03;;;;;;;24.94;27.01;102393.19;5059154;28;20097;-72
2023/05/13 10:43:20;;;;;;;8.95;1.90;;;;;;;24.79;26.40;102393.81;5063671;28;20130;-72
2023/05/13 10:46:06;;;;;;;6.53;1.83;;;;;;;24.84;27.34;102386.47;5045153;28;20375;-72
2023/05/13 10:48:39;;;;;;;6.22;2.10;;;;;;;24.87;27.11;102387.00;5058290;28;20543;-72
2023/05/13 10:51:08;;;;;;;4.18;1.85;;;;;;;24.75;26.96;102387.16;5060227;28;20039;-72
2023/05/13 10:53:46;;;;;;;7.05;2.00;;;;;;;24.74;26.78;102389.09;5059610;28;20044;-73
2023/05/13 10:56:12;;;;;;;5.80;2.00;;;;;;;24.76;26.15;102389.66;5058572;28;20029;-73
2023/05/13 10:58:38;;;;;;;3.42;1.70;;;;;;;24.89;26.51;102391.19;5059197;28;20031;-72
2023/05/13 11:01:17;;;;;;;4.28;1.90;;;;;;;24.77;26.49;102365.72;5056826;28;20024;-72
2023/05/13 11:04:03;;;;;;;7.93;1.95;;;;;;;24.99;26.42;102383.03;5058851;28;20025;-73
2023/05/13 11:06:34;;;;;;;5.68;2.00;;;;;;;24.93;26.71;102381.31;5058748;28;20057;-74
2023/05/13 11:09:00;;;;;;;4.55;1.90;;;;;;;24.90;26.24;102379.09;5061052;28;20032;-72
2023/05/13 11:11:31;;;;;;;3.47;2.00;;;;;;;24.95;26.80;102367.31;5058994;28;20029;-73
2023/05/13 11:14:20;;;;;;;4.53;1.95;;;;;;;25.05;26.14;102373.75;5064594;28;20036;-74
2023/05/13 11:16:53;;;;;;;6.70;1.80;;;;;;;25.19;26.17;102379.72;5060001;28;20032;-73
2023/05/13 11:19:38;;;;;;;4.68;1.65;;;;;;;25.17;26.03;102375.56;5062335;28;20079;-73
2023/05/13 11:22:09;;;;;;;6.70;1.98;;;;;;;25.27;25.87;102370.16;5059555;28;20053;-74
2023/05/13 11:24:35;;;;;;;2.78;1.70;;;;;;;25.31;26.24;102376.81;5062755;28;20035;-75